createdAt,value
2023-12-28T00:00:01.142Z,5.78
2023-12-28T00:05:06.962Z,5.63
2023-12-28T00:10:10.047Z,5.13
2023-12-28T00:15:12.776Z,5.18
2023-12-28T00:20:15.603Z,7.38
2023-12-28T00:25:18.403Z,6.85
2023-12-28T00:30:21.213Z,6.35
2023-12-28T00:35:23.880Z,6.28
2023-12-28T00:40:26.686Z,6.90
2023-12-28T00:45:29.415Z,4.47
2023-12-28T00:50:33.460Z,6.88
2023-12-28T00:55:36.313Z,6.78
2023-12-28T01:00:39.086Z,6.38
2023-12-28T01:05:41.952Z,5.82
2023-12-28T01:10:47.653Z,5.75
2023-12-28T01:15:51.728Z,6.95
2023-12-28T01:20:54.703Z,5.82
2023-12-28T01:25:57.812Z,7.22
2023-12-28T01:31:01.395Z,6.93
2023-12-28T01:36:04.441Z,6.57
2023-12-28T01:41:07.745Z,6.55
2023-12-28T01:46:14.643Z,5.18
2023-12-28T01:51:17.781Z,6.82
2023-12-28T01:56:22.119Z,6.27
2023-12-28T02:01:27.566Z,6.13
2023-12-28T02:06:31.788Z,5.60
2023-12-28T02:11:35.444Z,4.63
2023-12-28T02:16:46.306Z,5.65
2023-12-28T02:21:49.301Z,6.22
2023-12-28T02:26:52.160Z,5.93
2023-12-28T02:32:00.985Z,6.35
2023-12-28T02:37:08.271Z,4.43
2023-12-28T02:42:11.460Z,5.75
2023-12-28T02:47:15.215Z,5.60
2023-12-28T02:52:18.159Z,5.37
2023-12-28T02:57:23.015Z,4.80
2023-12-28T03:02:26.928Z,4.18
2023-12-28T03:07:29.801Z,4.80
2023-12-28T03:12:33.370Z,5.47
2023-12-28T03:17:38.117Z,5.10
2023-12-28T03:22:41.993Z,4.72
2023-12-28T03:27:45.265Z,4.93
2023-12-28T03:32:49.453Z,5.03
2023-12-28T03:37:54.058Z,4.60
2023-12-28T03:42:57.094Z,4.07
2023-12-28T03:48:00.209Z,4.00
2023-12-28T03:53:03.230Z,3.88
2023-12-28T03:58:05.896Z,4.47
2023-12-28T04:03:08.785Z,4.43
2023-12-28T04:08:13.821Z,4.88
2023-12-28T04:13:16.866Z,4.82
2023-12-28T04:18:19.670Z,5.07
2023-12-28T04:23:22.493Z,5.15
2023-12-28T04:28:25.094Z,4.65
2023-12-28T04:33:47.604Z,4.45
2023-12-28T04:38:51.202Z,5.43
2023-12-28T04:44:15.780Z,3.42
2023-12-28T04:49:18.512Z,4.65
2023-12-28T04:54:21.372Z,4.82
2023-12-28T04:59:24.002Z,3.63
2023-12-28T05:04:27.322Z,3.70
2023-12-28T05:09:30.046Z,3.42
2023-12-28T05:14:32.859Z,3.63
2023-12-28T05:19:35.881Z,4.25
2023-12-28T05:24:39.313Z,4.85
2023-12-28T05:29:42.278Z,3.30
2023-12-28T05:34:45.206Z,3.92
2023-12-28T05:39:47.987Z,3.33
2023-12-28T05:44:50.667Z,3.13
2023-12-28T05:49:53.577Z,3.08
2023-12-28T05:54:57.853Z,3.60
2023-12-28T06:00:09.300Z,4.65
2023-12-28T06:05:15.796Z,3.42
2023-12-28T06:10:18.766Z,4.03
2023-12-28T06:15:21.749Z,3.63
2023-12-28T06:20:24.364Z,3.75
2023-12-28T06:25:27.037Z,4.10
2023-12-28T06:30:30.290Z,2.42
2023-12-28T06:35:33.386Z,3.45
2023-12-28T06:40:36.008Z,4.53
2023-12-28T06:45:39.997Z,3.08
2023-12-28T06:50:43.474Z,3.47
2023-12-28T06:55:46.454Z,3.42
2023-12-28T07:00:49.266Z,3.55
2023-12-28T07:05:52.576Z,4.72
2023-12-28T07:10:55.758Z,3.78
2023-12-28T07:16:00.023Z,3.15
2023-12-28T07:21:07.123Z,3.65
2023-12-28T07:26:09.909Z,3.72
2023-12-28T07:31:12.770Z,3.65
2023-12-28T07:36:15.790Z,3.85
2023-12-28T07:41:18.505Z,3.88
2023-12-28T07:46:21.943Z,3.80
2023-12-28T07:51:24.630Z,4.05
2023-12-28T07:56:27.583Z,4.18
2023-12-28T08:01:30.805Z,3.35
2023-12-28T08:06:34.088Z,3.92
2023-12-28T08:11:43.175Z,3.95
2023-12-28T08:16:45.884Z,2.55
2023-12-28T08:21:49.620Z,3.45
2023-12-28T08:26:54.396Z,4.45
2023-12-28T08:31:57.261Z,4.13
2023-12-28T08:37:00.658Z,5.30
2023-12-28T08:42:03.464Z,3.97
2023-12-28T08:47:07.443Z,3.20
2023-12-28T08:52:11.525Z,3.88
2023-12-28T08:57:17.460Z,3.63
2023-12-28T09:02:21.674Z,4.25
2023-12-28T09:07:26.316Z,4.67
2023-12-28T09:12:29.310Z,3.43
2023-12-28T09:17:32.167Z,4.03
2023-12-28T09:22:34.867Z,3.55
2023-12-28T09:27:37.651Z,3.65
2023-12-28T09:32:59.292Z,5.53
2023-12-28T09:38:02.444Z,3.80
2023-12-28T09:43:16.744Z,3.63
2023-12-28T09:48:20.875Z,2.80
2023-12-28T09:53:27.264Z,4.30
2023-12-28T09:58:34.966Z,4.25
2023-12-28T10:03:39.002Z,3.10
2023-12-28T10:08:50.780Z,4.45
2023-12-28T10:13:54.824Z,3.80
2023-12-28T10:18:59.146Z,5.18
2023-12-28T10:24:03.668Z,3.38
2023-12-28T10:34:09.300Z,4.20
2023-12-28T10:39:14.641Z,3.58
2023-12-28T10:44:22.338Z,3.90
2023-12-28T10:49:27.434Z,3.67
2023-12-28T10:54:42.495Z,4.00
2023-12-28T11:00:08.661Z,4.00
2023-12-28T11:05:13.362Z,3.80
2023-12-28T11:10:17.348Z,3.17
2023-12-28T11:15:20.357Z,4.00
2023-12-28T11:20:24.564Z,3.75
2023-12-28T11:25:32.849Z,3.60
2023-12-28T11:30:38.130Z,3.83
2023-12-28T11:35:41.597Z,3.13
2023-12-28T11:40:48.007Z,5.00
2023-12-28T11:45:58.498Z,4.55
2023-12-28T11:51:02.053Z,4.15
2023-12-28T11:56:06.293Z,4.30
2023-12-28T12:01:09.316Z,4.18
2023-12-28T12:06:12.680Z,4.30
2023-12-28T12:11:15.912Z,3.22
2023-12-28T12:16:19.183Z,4.38
2023-12-28T12:21:22.980Z,4.43
2023-12-28T12:26:27.344Z,4.57
2023-12-28T12:31:30.629Z,3.75
2023-12-28T12:36:55.592Z,3.92
2023-12-28T12:41:59.260Z,4.18
2023-12-28T12:47:03.592Z,4.70
2023-12-28T12:52:09.239Z,4.35
2023-12-28T13:02:15.008Z,4.30
2023-12-28T13:07:17.900Z,4.55
2023-12-28T13:12:20.721Z,3.67
2023-12-28T13:17:23.413Z,5.18
2023-12-28T13:22:26.102Z,4.22
2023-12-28T13:27:29.816Z,3.72
2023-12-28T13:32:32.723Z,4.15
2023-12-28T13:37:35.507Z,3.03
2023-12-28T13:42:38.377Z,3.63
2023-12-28T13:47:41.217Z,4.53
2023-12-28T13:52:44.037Z,4.32
2023-12-28T13:57:49.645Z,4.93
2023-12-28T14:02:53.928Z,5.43
2023-12-28T14:07:56.617Z,4.50
2023-12-28T14:12:59.728Z,4.38
2023-12-28T14:18:06.385Z,3.88
2023-12-28T14:23:09.864Z,3.55
2023-12-28T14:28:12.872Z,4.57
2023-12-28T14:33:15.900Z,4.63
2023-12-28T14:38:18.668Z,5.03
2023-12-28T14:43:21.300Z,5.15
2023-12-28T14:48:24.882Z,5.47
2023-12-28T14:53:27.897Z,3.67
2023-12-28T14:58:31.513Z,4.10
2023-12-28T15:03:34.552Z,4.60
2023-12-28T15:08:37.344Z,5.75
2023-12-28T15:13:40.814Z,5.20
2023-12-28T15:18:45.287Z,5.32
2023-12-28T15:23:49.097Z,5.50
2023-12-28T15:28:51.995Z,4.47
2023-12-28T15:33:56.096Z,5.05
2023-12-28T15:38:59.087Z,5.07
2023-12-28T15:44:02.265Z,5.40
2023-12-28T15:49:05.226Z,4.78
2023-12-28T15:54:08.302Z,3.28
2023-12-28T15:59:12.159Z,4.25
2023-12-28T16:04:16.297Z,4.93
2023-12-28T16:09:19.156Z,4.72
2023-12-28T16:14:22.457Z,4.78
2023-12-28T16:19:27.214Z,5.20
2023-12-28T16:24:30.640Z,4.68
2023-12-28T16:29:33.528Z,4.47
2023-12-28T16:34:38.771Z,4.15
2023-12-28T16:39:42.071Z,4.97
2023-12-28T16:44:44.865Z,4.45
2023-12-28T16:49:48.318Z,5.00
2023-12-28T16:54:53.443Z,3.55
2023-12-28T17:00:06.993Z,3.30
2023-12-28T17:05:14.479Z,2.97
2023-12-28T17:10:17.651Z,4.30
2023-12-28T17:15:21.955Z,3.83
2023-12-28T17:20:25.896Z,4.25
2023-12-28T17:25:41.225Z,3.00
2023-12-28T17:31:02.938Z,3.63
2023-12-28T17:36:07.357Z,3.90
2023-12-28T17:41:19.819Z,3.22
2023-12-28T17:46:45.807Z,3.40
2023-12-28T17:51:50.204Z,3.58
2023-12-28T17:56:55.320Z,2.60
2023-12-28T18:02:00.004Z,3.28
2023-12-28T18:07:04.729Z,3.20
2023-12-28T18:12:10.941Z,4.20
2023-12-28T18:17:13.716Z,2.45
2023-12-28T18:22:16.918Z,4.05
2023-12-28T18:27:19.745Z,3.35
2023-12-28T18:32:22.692Z,3.83
2023-12-28T18:37:25.644Z,3.00
2023-12-28T18:42:28.299Z,3.55
2023-12-28T18:47:32.516Z,3.33
2023-12-28T18:52:35.217Z,3.30
2023-12-28T18:57:40.799Z,3.70
2023-12-28T19:02:44.018Z,3.65
2023-12-28T19:07:47.114Z,3.10
2023-12-28T19:12:49.924Z,2.65
2023-12-28T19:17:53.735Z,3.33
2023-12-28T19:22:56.517Z,4.38
2023-12-28T19:28:00.259Z,3.50
2023-12-28T19:33:03.591Z,2.92
2023-12-28T19:38:06.369Z,4.13
2023-12-28T19:43:09.046Z,3.13
2023-12-28T19:48:12.110Z,4.22
2023-12-28T19:53:15.907Z,3.85
2023-12-28T19:58:18.718Z,3.53
2023-12-28T20:03:21.506Z,4.70
2023-12-28T20:08:24.613Z,2.70
2023-12-28T20:13:27.265Z,3.00
2023-12-28T20:18:31.024Z,3.28
2023-12-28T20:23:33.939Z,4.57
2023-12-28T20:28:37.641Z,3.20
2023-12-28T20:33:40.300Z,3.30
2023-12-28T20:38:43.350Z,3.10
2023-12-28T20:43:51.502Z,3.85
2023-12-28T20:48:54.890Z,3.25
2023-12-28T20:53:57.842Z,3.10
2023-12-28T20:59:00.797Z,2.88
2023-12-28T21:04:04.860Z,3.00
2023-12-28T21:09:08.880Z,2.53
2023-12-28T21:14:14.308Z,2.78
2023-12-28T21:19:18.507Z,4.07
2023-12-28T21:24:21.184Z,2.47
2023-12-28T21:29:23.895Z,2.92
2023-12-28T21:34:27.061Z,3.10
2023-12-28T21:39:30.682Z,4.72
2023-12-28T21:44:33.468Z,3.08
2023-12-28T21:49:38.097Z,3.53
2023-12-28T22:00:02.070Z,3.20
2023-12-28T22:05:11.633Z,2.65
2023-12-28T22:10:15.167Z,3.33
2023-12-28T22:15:20.545Z,3.05
2023-12-28T22:20:24.182Z,4.03
2023-12-28T22:25:27.075Z,3.20
2023-12-28T22:30:34.269Z,3.13
2023-12-28T22:35:37.495Z,3.20
2023-12-28T22:40:40.247Z,3.25
2023-12-28T22:45:45.552Z,3.55
2023-12-28T22:50:48.550Z,3.60
2023-12-28T22:56:09.768Z,4.22
2023-12-28T23:01:12.744Z,3.00
2023-12-28T23:06:16.454Z,4.25
2023-12-28T23:11:19.845Z,3.40
2023-12-28T23:16:24.895Z,2.97
2023-12-28T23:21:27.678Z,3.30
2023-12-28T23:26:30.272Z,3.65
2023-12-28T23:31:33.590Z,4.95
2023-12-28T23:36:38.399Z,4.28
2023-12-28T23:41:41.187Z,3.70
2023-12-28T23:46:45.185Z,4.03
2023-12-28T23:51:48.021Z,3.15
2023-12-28T23:56:51.640Z,3.45
